sensor_id;sensor_type;location;lat;lon;timestamp;temperature;humidity
63966;DHT22;50151;52.030;5.350;2022-09-30T07:02:42;6.10;99.90
63966;DHT22;50151;52.030;5.350;2022-09-30T07:05:09;6.20;99.90
63966;DHT22;50151;52.030;5.350;2022-09-30T07:07:35;6.30;99.90
63966;DHT22;50151;52.030;5.350;2022-09-30T07:10:03;6.30;99.90
63966;DHT22;50151;52.030;5.350;2022-09-30T07:12:30;6.40;99.90
63966;DHT22;50151;52.030;5.350;2022-09-30T07:14:57;6.40;99.90
63966;DHT22;50151;52.030;5.350;2022-09-30T07:17:26;6.50;99.90
63966;DHT22;50151;52.030;5.350;2022-09-30T07:19:53;6.60;99.90
63966;DHT22;50151;52.030;5.350;2022-09-30T07:22:20;6.60;99.90
63966;DHT22;50151;52.030;5.350;2022-09-30T07:24:57;6.70;99.90
63966;DHT22;50151;52.030;5.350;2022-09-30T07:27:26;6.80;99.90
63966;DHT22;50151;52.030;5.350;2022-09-30T07:29:53;6.80;99.90
63966;DHT22;50151;52.030;5.350;2022-09-30T07:32:35;6.90;99.90
63966;DHT22;50151;52.030;5.350;2022-09-30T07:35:02;7.00;99.90
63966;DHT22;50151;52.030;5.350;2022-09-30T07:37:29;7.10;99.90
63966;DHT22;50151;52.030;5.350;2022-09-30T07:40:05;7.20;99.90
63966;DHT22;50151;52.030;5.350;2022-09-30T07:42:32;7.30;99.90
63966;DHT22;50151;52.030;5.350;2022-09-30T07:45:02;7.40;99.90
63966;DHT22;50151;52.030;5.350;2022-09-30T07:47:28;7.50;99.90
63966;DHT22;50151;52.030;5.350;2022-09-30T07:49:55;7.60;99.90
63966;DHT22;50151;52.030;5.350;2022-09-30T07:52:21;7.60;99.90
63966;DHT22;50151;52.030;5.350;2022-09-30T07:54:48;7.70;99.90
63966;DHT22;50151;52.030;5.350;2022-09-30T07:57:16;7.80;99.90
63966;DHT22;50151;52.030;5.350;2022-09-30T07:59:43;7.90;99.90
63966;DHT22;50151;52.030;5.350;2022-09-30T08:02:15;8.10;99.90
63966;DHT22;50151;52.030;5.350;2022-09-30T08:04:42;8.20;99.90
63966;DHT22;50151;52.030;5.350;2022-09-30T08:07:11;8.20;99.90
63966;DHT22;50151;52.030;5.350;2022-09-30T08:09:38;8.30;99.90
63966;DHT22;50151;52.030;5.350;2022-09-30T08:12:05;8.40;99.90
63966;DHT22;50151;52.030;5.350;2022-09-30T08:14:32;8.50;99.90
63966;DHT22;50151;52.030;5.350;2022-09-30T08:16:58;8.60;99.90
63966;DHT22;50151;52.030;5.350;2022-09-30T08:19:27;8.70;99.90
63966;DHT22;50151;52.030;5.350;2022-09-30T08:21:55;8.80;99.90
63966;DHT22;50151;52.030;5.350;2022-09-30T08:24:23;8.90;99.90
63966;DHT22;50151;52.030;5.350;2022-09-30T08:26:50;9.00;99.90
63966;DHT22;50151;52.030;5.350;2022-09-30T08:29:18;9.20;99.90
63966;DHT22;50151;52.030;5.350;2022-09-30T08:32:04;9.30;99.90
63966;DHT22;50151;52.030;5.350;2022-09-30T08:34:31;9.40;99.90
63966;DHT22;50151;52.030;5.350;2022-09-30T08:37:01;9.60;99.90
63966;DHT22;50151;52.030;5.350;2022-09-30T08:39:35;9.70;99.90
63966;DHT22;50151;52.030;5.350;2022-09-30T08:42:18;9.90;99.90
63966;DHT22;50151;52.030;5.350;2022-09-30T08:45:30;9.90;99.90
63966;DHT22;50151;52.030;5.350;2022-09-30T08:48:13;10.20;99.90
63966;DHT22;50151;52.030;5.350;2022-09-30T08:53:47;10.40;99.90
63966;DHT22;50151;52.030;5.350;2022-09-30T08:56:24;10.60;99.90
63966;DHT22;50151;52.030;5.350;2022-09-30T08:59:13;10.70;99.90
63966;DHT22;50151;52.030;5.350;2022-09-30T09:01:44;10.90;99.90
63966;DHT22;50151;52.030;5.350;2022-09-30T09:04:13;11.00;99.90
63966;DHT22;50151;52.030;5.350;2022-09-30T09:06:59;11.20;99.90
63966;DHT22;50151;52.030;5.350;2022-09-30T09:09:40;11.30;99.90
63966;DHT22;50151;52.030;5.350;2022-09-30T09:12:19;11.50;99.90
63966;DHT22;50151;52.030;5.350;2022-09-30T09:18:10;11.80;99.90
63966;DHT22;50151;52.030;5.350;2022-09-30T09:20:56;12.00;98.70
63966;DHT22;50151;52.030;5.350;2022-09-30T09:23:26;12.10;97.60
63966;DHT22;50151;52.030;5.350;2022-09-30T09:25:56;12.20;97.70
63966;DHT22;50151;52.030;5.350;2022-09-30T09:28:30;12.30;97.20
63966;DHT22;50151;52.030;5.350;2022-09-30T09:31:01;12.40;97.20
63966;DHT22;50151;52.030;5.350;2022-09-30T09:33:31;12.60;95.80
63966;DHT22;50151;52.030;5.350;2022-09-30T09:38:34;12.70;95.10
63966;DHT22;50151;52.030;5.350;2022-09-30T09:43:59;12.90;94.30
63966;DHT22;50151;52.030;5.350;2022-09-30T09:46:40;13.10;93.90
63966;DHT22;50151;52.030;5.350;2022-09-30T09:51:42;13.40;92.40
63966;DHT22;50151;52.030;5.350;2022-09-30T09:54:16;13.40;92.70
63966;DHT22;50151;52.030;5.350;2022-09-30T09:56:44;13.50;92.50
63966;DHT22;50151;52.030;5.350;2022-09-30T09:59:15;13.70;91.60
63966;DHT22;50151;52.030;5.350;2022-09-30T10:01:55;13.70;90.60
63966;DHT22;50151;52.030;5.350;2022-09-30T10:04:24;13.70;90.30
63966;DHT22;50151;52.030;5.350;2022-09-30T10:06:55;13.80;89.40
63966;DHT22;50151;52.030;5.350;2022-09-30T10:09:33;13.90;89.50
63966;DHT22;50151;52.030;5.350;2022-09-30T10:17:41;14.20;86.90
63966;DHT22;50151;52.030;5.350;2022-09-30T10:20:22;14.30;87.40
63966;DHT22;50151;52.030;5.350;2022-09-30T10:26:04;14.40;87.00
63966;DHT22;50151;52.030;5.350;2022-09-30T10:31:31;14.60;84.80
63966;DHT22;50151;52.030;5.350;2022-09-30T10:34:24;14.70;83.50
63966;DHT22;50151;52.030;5.350;2022-09-30T10:36:52;14.50;82.70
63966;DHT22;50151;52.030;5.350;2022-09-30T10:39:20;14.40;82.90
63966;DHT22;50151;52.030;5.350;2022-09-30T10:42:01;14.60;83.80
63966;DHT22;50151;52.030;5.350;2022-09-30T10:44:29;14.80;82.60
63966;DHT22;50151;52.030;5.350;2022-09-30T10:47:00;14.90;81.20
63966;DHT22;50151;52.030;5.350;2022-09-30T10:49:35;15.00;80.80
63966;DHT22;50151;52.030;5.350;2022-09-30T10:52:03;15.20;80.40
63966;DHT22;50151;52.030;5.350;2022-09-30T10:54:54;15.40;80.20
63966;DHT22;50151;52.030;5.350;2022-09-30T10:57:32;15.60;79.50
63966;DHT22;50151;52.030;5.350;2022-09-30T11:00:06;15.50;76.60
63966;DHT22;50151;52.030;5.350;2022-09-30T11:10:44;15.80;73.70
63966;DHT22;50151;52.030;5.350;2022-09-30T11:13:22;15.60;74.70
63966;DHT22;50151;52.030;5.350;2022-09-30T11:16:17;15.70;74.20
63966;DHT22;50151;52.030;5.350;2022-09-30T11:19:08;15.80;72.80
63966;DHT22;50151;52.030;5.350;2022-09-30T11:21:44;16.10;70.40
63966;DHT22;50151;52.030;5.350;2022-09-30T11:27:01;15.80;70.80
63966;DHT22;50151;52.030;5.350;2022-09-30T11:29:44;16.00;71.40
63966;DHT22;50151;52.030;5.350;2022-09-30T11:38:53;17.00;69.90
63966;DHT22;50151;52.030;5.350;2022-09-30T11:41:44;17.10;68.70
63966;DHT22;50151;52.030;5.350;2022-09-30T11:55:04;17.30;66.90
63966;DHT22;50151;52.030;5.350;2022-09-30T11:57:50;17.20;66.80
63966;DHT22;50151;52.030;5.350;2022-09-30T12:00:21;17.40;67.30
63966;DHT22;50151;52.030;5.350;2022-09-30T12:03:00;17.30;66.10
63966;DHT22;50151;52.030;5.350;2022-09-30T12:05:41;17.20;67.30
63966;DHT22;50151;52.030;5.350;2022-09-30T12:11:04;16.70;67.20
63966;DHT22;50151;52.030;5.350;2022-09-30T12:13:40;16.50;68.70
63966;DHT22;50151;52.030;5.350;2022-09-30T12:16:16;16.20;69.90
63966;DHT22;50151;52.030;5.350;2022-09-30T12:18:50;16.20;70.70
63966;DHT22;50151;52.030;5.350;2022-09-30T12:21:25;15.90;70.80
63966;DHT22;50151;52.030;5.350;2022-09-30T12:24:01;15.90;71.20
63966;DHT22;50151;52.030;5.350;2022-09-30T12:26:29;15.90;72.00
63966;DHT22;50151;52.030;5.350;2022-09-30T12:29:04;15.90;72.50
63966;DHT22;50151;52.030;5.350;2022-09-30T12:38:22;16.80;71.00
63966;DHT22;50151;52.030;5.350;2022-09-30T12:41:11;16.40;70.50
63966;DHT22;50151;52.030;5.350;2022-09-30T12:49:20;16.50;71.30
63966;DHT22;50151;52.030;5.350;2022-09-30T12:51:53;16.40;71.80
63966;DHT22;50151;52.030;5.350;2022-09-30T12:54:25;16.40;71.50
63966;DHT22;50151;52.030;5.350;2022-09-30T12:56:56;16.40;71.90
63966;DHT22;50151;52.030;5.350;2022-09-30T12:59:31;16.40;71.50
63966;DHT22;50151;52.030;5.350;2022-09-30T13:01:59;16.80;71.50
63966;DHT22;50151;52.030;5.350;2022-09-30T13:04:31;17.50;70.50
63966;DHT22;50151;52.030;5.350;2022-09-30T13:09:33;18.20;66.20
63966;DHT22;50151;52.030;5.350;2022-09-30T13:14:37;17.80;66.70
63966;DHT22;50151;52.030;5.350;2022-09-30T13:19:43;18.00;64.80
63966;DHT22;50151;52.030;5.350;2022-09-30T13:32:44;18.00;65.60
63966;DHT22;50151;52.030;5.350;2022-09-30T13:38:14;18.80;63.90
63966;DHT22;50151;52.030;5.350;2022-09-30T13:46:23;19.10;61.10
63966;DHT22;50151;52.030;5.350;2022-09-30T13:48:55;19.50;61.50
63966;DHT22;50151;52.030;5.350;2022-09-30T13:51:24;19.30;60.30
63966;DHT22;50151;52.030;5.350;2022-09-30T13:53:55;19.60;60.10
63966;DHT22;50151;52.030;5.350;2022-09-30T13:56:29;19.20;60.30
63966;DHT22;50151;52.030;5.350;2022-09-30T14:07:23;18.90;59.50
63966;DHT22;50151;52.030;5.350;2022-09-30T14:10:09;19.10;60.10
63966;DHT22;50151;52.030;5.350;2022-09-30T14:23:44;19.50;57.10
63966;DHT22;50151;52.030;5.350;2022-09-30T14:26:25;19.50;57.00
63966;DHT22;50151;52.030;5.350;2022-09-30T14:29:13;19.20;57.00
63966;DHT22;50151;52.030;5.350;2022-09-30T14:31:44;19.20;58.30
63966;DHT22;50151;52.030;5.350;2022-09-30T14:34:14;19.10;57.70
63966;DHT22;50151;52.030;5.350;2022-09-30T14:36:41;18.80;56.20
63966;DHT22;50151;52.030;5.350;2022-09-30T14:39:19;18.80;56.90
63966;DHT22;50151;52.030;5.350;2022-09-30T14:41:53;18.90;57.50
63966;DHT22;50151;52.030;5.350;2022-09-30T14:44:25;18.90;58.10
63966;DHT22;50151;52.030;5.350;2022-09-30T14:46:53;18.70;59.80
63966;DHT22;50151;52.030;5.350;2022-09-30T14:49:31;18.70;58.10
63966;DHT22;50151;52.030;5.350;2022-09-30T14:52:02;18.50;57.60
63966;DHT22;50151;52.030;5.350;2022-09-30T14:54:30;18.60;58.40
63966;DHT22;50151;52.030;5.350;2022-09-30T14:57:00;18.60;58.40
63966;DHT22;50151;52.030;5.350;2022-09-30T14:59:30;19.00;58.70
63966;DHT22;50151;52.030;5.350;2022-09-30T15:02:03;19.00;57.90
63966;DHT22;50151;52.030;5.350;2022-09-30T15:04:33;19.00;58.70
63966;DHT22;50151;52.030;5.350;2022-09-30T15:07:02;18.60;59.10
63966;DHT22;50151;52.030;5.350;2022-09-30T15:09:34;18.70;60.00
63966;DHT22;50151;52.030;5.350;2022-09-30T15:12:09;18.50;60.10
63966;DHT22;50151;52.030;5.350;2022-09-30T15:14:55;18.50;60.60
63966;DHT22;50151;52.030;5.350;2022-09-30T15:19:55;18.30;59.50
63966;DHT22;50151;52.030;5.350;2022-09-30T15:22:24;18.20;60.90
63966;DHT22;50151;52.030;5.350;2022-09-30T15:24:52;18.20;60.50
63966;DHT22;50151;52.030;5.350;2022-09-30T15:27:26;18.10;60.30
63966;DHT22;50151;52.030;5.350;2022-09-30T15:29:54;17.90;60.90
63966;DHT22;50151;52.030;5.350;2022-09-30T15:32:24;17.80;62.00
63966;DHT22;50151;52.030;5.350;2022-09-30T15:34:51;17.70;62.50
63966;DHT22;50151;52.030;5.350;2022-09-30T15:37:22;17.70;62.70
63966;DHT22;50151;52.030;5.350;2022-09-30T15:39:50;17.40;63.20
63966;DHT22;50151;52.030;5.350;2022-09-30T15:42:56;17.50;65.00
63966;DHT22;50151;52.030;5.350;2022-09-30T15:45:36;17.20;64.10
63966;DHT22;50151;52.030;5.350;2022-09-30T15:48:08;17.20;65.00
63966;DHT22;50151;52.030;5.350;2022-09-30T15:50:58;17.10;65.50
63966;DHT22;50151;52.030;5.350;2022-09-30T15:53:45;17.10;65.80
63966;DHT22;50151;52.030;5.350;2022-09-30T15:56:22;17.20;66.30
63966;DHT22;50151;52.030;5.350;2022-09-30T15:58:55;17.10;66.10
63966;DHT22;50151;52.030;5.350;2022-09-30T16:01:43;17.10;66.50
63966;DHT22;50151;52.030;5.350;2022-09-30T16:12:01;17.20;66.50
63966;DHT22;50151;52.030;5.350;2022-09-30T16:17:24;16.80;65.30
63966;DHT22;50151;52.030;5.350;2022-09-30T16:19:52;16.70;65.40
63966;DHT22;50151;52.030;5.350;2022-09-30T16:25:20;16.60;66.20
63966;DHT22;50151;52.030;5.350;2022-09-30T16:27:53;16.50;66.30
63966;DHT22;50151;52.030;5.350;2022-09-30T16:30:21;16.40;66.40
63966;DHT22;50151;52.030;5.350;2022-09-30T16:32:50;16.30;67.00
63966;DHT22;50151;52.030;5.350;2022-09-30T16:35:21;16.20;67.50
63966;DHT22;50151;52.030;5.350;2022-09-30T16:37:49;16.10;67.80
63966;DHT22;50151;52.030;5.350;2022-09-30T16:40:22;16.10;67.70
63966;DHT22;50151;52.030;5.350;2022-09-30T16:42:50;16.00;67.90
63966;DHT22;50151;52.030;5.350;2022-09-30T16:45:20;15.90;68.20
63966;DHT22;50151;52.030;5.350;2022-09-30T16:47:47;16.00;68.60
63966;DHT22;50151;52.030;5.350;2022-09-30T16:50:19;15.80;68.30
63966;DHT22;50151;52.030;5.350;2022-09-30T16:52:46;15.80;68.40
63966;DHT22;50151;52.030;5.350;2022-09-30T16:55:13;15.70;68.60
63966;DHT22;50151;52.030;5.350;2022-09-30T16:57:45;15.60;69.00
63966;DHT22;50151;52.030;5.350;2022-09-30T17:00:14;15.60;69.00
63966;DHT22;50151;52.030;5.350;2022-09-30T17:02:45;15.50;69.30
63966;DHT22;50151;52.030;5.350;2022-09-30T17:05:20;15.40;69.50
63966;DHT22;50151;52.030;5.350;2022-09-30T17:07:51;15.40;69.80
63966;DHT22;50151;52.030;5.350;2022-09-30T17:12:50;15.20;69.70
63966;DHT22;50151;52.030;5.350;2022-09-30T17:15:18;15.20;69.80
63966;DHT22;50151;52.030;5.350;2022-09-30T17:17:45;15.20;69.70
63966;DHT22;50151;52.030;5.350;2022-09-30T17:20:11;15.20;69.60
63966;DHT22;50151;52.030;5.350;2022-09-30T17:22:39;15.10;69.50
63966;DHT22;50151;52.030;5.350;2022-09-30T17:25:06;15.10;69.50
63966;DHT22;50151;52.030;5.350;2022-09-30T17:27:33;15.10;69.90
63966;DHT22;50151;52.030;5.350;2022-09-30T17:30:00;15.00;69.80
63966;DHT22;50151;52.030;5.350;2022-09-30T17:32:26;15.00;70.30
63966;DHT22;50151;52.030;5.350;2022-09-30T17:34:53;15.00;70.40
63966;DHT22;50151;52.030;5.350;2022-09-30T17:37:20;14.90;70.90
63966;DHT22;50151;52.030;5.350;2022-09-30T17:39:47;14.80;71.40
63966;DHT22;50151;52.030;5.350;2022-09-30T17:42:14;14.80;71.90
63966;DHT22;50151;52.030;5.350;2022-09-30T17:45:00;14.80;72.30
63966;DHT22;50151;52.030;5.350;2022-09-30T17:47:27;14.60;73.10
63966;DHT22;50151;52.030;5.350;2022-09-30T17:49:54;14.60;72.60
63966;DHT22;50151;52.030;5.350;2022-09-30T17:52:21;14.50;72.60
63966;DHT22;50151;52.030;5.350;2022-09-30T17:54:50;14.40;73.00
63966;DHT22;50151;52.030;5.350;2022-09-30T17:57:19;14.40;72.80
63966;DHT22;50151;52.030;5.350;2022-09-30T17:59:46;14.40;73.60
63966;DHT22;50151;52.030;5.350;2022-09-30T18:02:13;14.30;73.10
63966;DHT22;50151;52.030;5.350;2022-09-30T18:04:43;14.30;73.70
63966;DHT22;50151;52.030;5.350;2022-09-30T18:07:10;14.30;73.90
63966;DHT22;50151;52.030;5.350;2022-09-30T18:09:39;14.30;74.00
63966;DHT22;50151;52.030;5.350;2022-09-30T18:12:06;14.30;74.70
63966;DHT22;50151;52.030;5.350;2022-09-30T18:14:33;14.20;73.90
63966;DHT22;50151;52.030;5.350;2022-09-30T18:17:04;14.20;74.20
63966;DHT22;50151;52.030;5.350;2022-09-30T18:19:32;14.20;74.40
63966;DHT22;50151;52.030;5.350;2022-09-30T18:22:05;14.10;74.60
63966;DHT22;50151;52.030;5.350;2022-09-30T18:24:32;14.00;74.50
63966;DHT22;50151;52.030;5.350;2022-09-30T18:27:17;14.10;74.60
63966;DHT22;50151;52.030;5.350;2022-09-30T18:29:47;14.10;74.70
63966;DHT22;50151;52.030;5.350;2022-09-30T18:32:15;14.00;75.00
63966;DHT22;50151;52.030;5.350;2022-09-30T18:34:43;14.00;75.00
63966;DHT22;50151;52.030;5.350;2022-09-30T18:37:10;14.00;74.60
63966;DHT22;50151;52.030;5.350;2022-09-30T18:39:36;14.00;74.70
63966;DHT22;50151;52.030;5.350;2022-09-30T18:42:04;14.00;74.70
63966;DHT22;50151;52.030;5.350;2022-09-30T18:44:31;14.00;74.90
63966;DHT22;50151;52.030;5.350;2022-09-30T18:46:58;14.00;75.30
63966;DHT22;50151;52.030;5.350;2022-09-30T18:49:25;14.00;75.20
63966;DHT22;50151;52.030;5.350;2022-09-30T18:51:52;13.90;75.50
63966;DHT22;50151;52.030;5.350;2022-09-30T18:54:19;14.00;75.80
63966;DHT22;50151;52.030;5.350;2022-09-30T18:56:46;14.00;75.50
63966;DHT22;50151;52.030;5.350;2022-09-30T18:59:13;13.90;75.50
63966;DHT22;50151;52.030;5.350;2022-09-30T19:01:46;14.00;75.70
63966;DHT22;50151;52.030;5.350;2022-09-30T19:04:13;13.90;75.70
63966;DHT22;50151;52.030;5.350;2022-09-30T19:06:44;13.90;75.50
63966;DHT22;50151;52.030;5.350;2022-09-30T19:09:13;13.90;75.70
63966;DHT22;50151;52.030;5.350;2022-09-30T19:11:42;13.90;75.60
63966;DHT22;50151;52.030;5.350;2022-09-30T19:14:11;13.90;76.00
63966;DHT22;50151;52.030;5.350;2022-09-30T19:16:39;13.80;76.30
63966;DHT22;50151;52.030;5.350;2022-09-30T19:19:07;13.80;76.10
63966;DHT22;50151;52.030;5.350;2022-09-30T19:21:37;13.80;76.10
63966;DHT22;50151;52.030;5.350;2022-09-30T19:24:06;13.80;76.30
63966;DHT22;50151;52.030;5.350;2022-09-30T19:26:36;13.80;76.20
63966;DHT22;50151;52.030;5.350;2022-09-30T19:29:04;13.80;76.20
63966;DHT22;50151;52.030;5.350;2022-09-30T19:31:32;13.80;75.30
63966;DHT22;50151;52.030;5.350;2022-09-30T19:34:02;13.80;75.20
63966;DHT22;50151;52.030;5.350;2022-09-30T19:36:29;13.90;75.00
63966;DHT22;50151;52.030;5.350;2022-09-30T19:39:12;13.90;74.20
63966;DHT22;50151;52.030;5.350;2022-09-30T19:41:39;13.90;73.70
63966;DHT22;50151;52.030;5.350;2022-09-30T19:44:06;13.90;73.70
63966;DHT22;50151;52.030;5.350;2022-09-30T19:46:33;13.90;73.80
63966;DHT22;50151;52.030;5.350;2022-09-30T19:49:00;13.90;73.50
63966;DHT22;50151;52.030;5.350;2022-09-30T19:51:27;13.90;73.50
63966;DHT22;50151;52.030;5.350;2022-09-30T19:53:56;13.90;73.30
63966;DHT22;50151;52.030;5.350;2022-09-30T19:56:36;14.00;73.00
63966;DHT22;50151;52.030;5.350;2022-09-30T19:59:03;14.00;72.80
63966;DHT22;50151;52.030;5.350;2022-09-30T20:01:31;13.90;72.70
63966;DHT22;50151;52.030;5.350;2022-09-30T20:04:00;13.90;72.90
63966;DHT22;50151;52.030;5.350;2022-09-30T20:06:33;13.90;73.20
63966;DHT22;50151;52.030;5.350;2022-09-30T20:09:01;13.90;72.30
63966;DHT22;50151;52.030;5.350;2022-09-30T20:11:31;13.90;72.10
63966;DHT22;50151;52.030;5.350;2022-09-30T20:14:00;13.90;72.50
63966;DHT22;50151;52.030;5.350;2022-09-30T20:16:46;13.90;72.20
63966;DHT22;50151;52.030;5.350;2022-09-30T20:19:15;13.90;72.50
63966;DHT22;50151;52.030;5.350;2022-09-30T20:21:42;13.90;72.20
63966;DHT22;50151;52.030;5.350;2022-09-30T20:24:11;13.90;72.50
63966;DHT22;50151;52.030;5.350;2022-09-30T20:26:39;13.90;72.60
63966;DHT22;50151;52.030;5.350;2022-09-30T20:29:06;13.90;72.30
63966;DHT22;50151;52.030;5.350;2022-09-30T20:31:35;13.80;72.50
63966;DHT22;50151;52.030;5.350;2022-09-30T20:34:03;13.80;72.70
63966;DHT22;50151;52.030;5.350;2022-09-30T20:36:30;13.80;72.70
63966;DHT22;50151;52.030;5.350;2022-09-30T20:38:59;13.80;72.70
63966;DHT22;50151;52.030;5.350;2022-09-30T20:41:32;13.80;72.70
63966;DHT22;50151;52.030;5.350;2022-09-30T20:44:04;13.80;72.90
63966;DHT22;50151;52.030;5.350;2022-09-30T20:46:32;13.80;72.70
63966;DHT22;50151;52.030;5.350;2022-09-30T20:49:00;13.80;72.70
63966;DHT22;50151;52.030;5.350;2022-09-30T20:51:28;13.80;72.70
63966;DHT22;50151;52.030;5.350;2022-09-30T20:53:57;13.80;72.70
63966;DHT22;50151;52.030;5.350;2022-09-30T20:56:26;13.80;72.70
63966;DHT22;50151;52.030;5.350;2022-09-30T20:58:58;13.70;72.50
63966;DHT22;50151;52.030;5.350;2022-09-30T21:01:25;13.80;72.70
63966;DHT22;50151;52.030;5.350;2022-09-30T21:03:53;13.70;72.80
63966;DHT22;50151;52.030;5.350;2022-09-30T21:06:23;13.80;72.70
63966;DHT22;50151;52.030;5.350;2022-09-30T21:08:50;13.80;72.70
63966;DHT22;50151;52.030;5.350;2022-09-30T21:11:18;13.80;72.70
63966;DHT22;50151;52.030;5.350;2022-09-30T21:13:51;13.70;73.00
63966;DHT22;50151;52.030;5.350;2022-09-30T21:16:19;13.70;73.10
63966;DHT22;50151;52.030;5.350;2022-09-30T21:18:49;13.70;73.20
63966;DHT22;50151;52.030;5.350;2022-09-30T21:21:18;13.70;73.30
63966;DHT22;50151;52.030;5.350;2022-09-30T21:23:45;13.70;73.50
63966;DHT22;50151;52.030;5.350;2022-09-30T21:26:14;13.70;74.30
63966;DHT22;50151;52.030;5.350;2022-09-30T21:28:41;13.70;74.30
